Ada, Michigan
Current Conditions -  °F | °C
As of 8:53 PM on Wednesday 26 Nov 2014 (Local Time) from KGRR Reporting Station
Overcast Overcast  
Wind Chill: -5°   Ceiling: 3800
Heat Index: -2°   Visibility: 10mi
Dew Point: -6°   Wind: 5mph
Humidity: 72%   Direction: 350°N
Pressure: 30.12"   Gusts: NA
Location:  42.95°N, 85.49°W
Report Text: KGRR 270153Z 35004KT 10SM OVC038 M02/M06 A3012 RMK AO2 SLP208 T10171061
Loading
Personal Weather Stations






























Interactive Weather Map New forecast layout! Learn more

10-Day Weather Forecast

Advertisements
Track Severe Weather on mobile